Time;durP1;ratioP1;P1;durP2;ratioP2;P2;SDS_P1;SDS_P2;PMS_P1;PMS_P2;Temp;Humidity;BMP_temperature;BMP_pressure;BME280_temperature;BME280_humidity;BME280_pressure;Samples;Min_cycle;Max_cycle;Signal;HPM_P1;HPM_P2
2022/02/23 00:00:44;;;;;;;5.05;1.10;;;8.30;99.90;;;;;;4995131;28;20034;-80
2022/02/23 00:03:10;;;;;;;5.72;1.45;;;8.30;99.90;;;;;;4978583;28;20038;-80
2022/02/23 00:05:36;;;;;;;3.40;0.77;;;8.30;99.90;;;;;;4978418;28;20462;-81
2022/02/23 00:08:02;;;;;;;3.90;1.10;;;8.30;99.90;;;;;;4978801;28;20038;-80
2022/02/23 00:10:28;;;;;;;4.10;1.05;;;8.30;99.90;;;;;;4978244;28;20034;-80
2022/02/23 00:12:53;;;;;;;5.18;0.93;;;8.30;99.90;;;;;;4995592;28;20033;-81
2022/02/23 00:15:19;;;;;;;4.70;1.15;;;8.30;99.90;;;;;;4996157;28;20026;-79
2022/02/23 00:17:45;;;;;;;9.10;1.70;;;8.30;99.90;;;;;;4978252;28;20114;-80
2022/02/23 00:20:13;;;;;;;5.80;1.10;;;8.30;99.90;;;;;;4978985;28;20034;-80
2022/02/23 00:22:39;;;;;;;4.57;1.35;;;8.30;99.90;;;;;;4995981;28;20019;-87
2022/02/23 00:25:06;;;;;;;8.93;1.48;;;8.30;99.90;;;;;;4979712;28;20562;-78
2022/02/23 00:27:31;;;;;;;5.40;1.50;;;8.30;99.90;;;;;;4996525;28;20041;-78
2022/02/23 00:29:57;;;;;;;8.35;1.75;;;8.40;99.90;;;;;;4979256;28;20026;-79
2022/02/23 00:32:23;;;;;;;8.73;1.58;;;8.40;99.90;;;;;;4979398;28;20027;-77
2022/02/23 00:34:49;;;;;;;9.63;1.92;;;8.40;99.90;;;;;;4978876;28;20529;-79
2022/02/23 00:37:15;;;;;;;5.68;1.25;;;8.40;99.90;;;;;;4979678;28;20062;-79
2022/02/23 00:39:42;;;;;;;6.03;1.27;;;8.40;99.90;;;;;;4996989;28;20110;-79
2022/02/23 00:42:07;;;;;;;6.22;1.30;;;8.40;99.90;;;;;;4982223;28;20030;-79
2022/02/23 00:44:33;;;;;;;5.05;1.40;;;8.40;99.90;;;;;;4999184;28;20018;-79
2022/02/23 00:46:59;;;;;;;6.47;1.27;;;8.40;99.90;;;;;;4981392;28;20038;-80
2022/02/23 00:49:25;;;;;;;3.55;1.13;;;8.40;99.90;;;;;;4980374;28;20038;-80
2022/02/23 00:51:51;;;;;;;5.22;1.40;;;8.30;99.90;;;;;;4998684;28;20030;-80
2022/02/23 00:54:18;;;;;;;5.38;1.10;;;8.40;99.90;;;;;;4980149;28;20382;-81
2022/02/23 00:56:45;;;;;;;6.40;1.30;;;8.40;99.90;;;;;;4978294;28;20056;-79
2022/02/23 00:59:11;;;;;;;6.57;1.27;;;8.40;99.90;;;;;;4978413;28;20018;-79
2022/02/23 01:01:37;;;;;;;10.00;1.83;;;8.40;99.90;;;;;;4978133;28;20035;-80
2022/02/23 01:04:02;;;;;;;6.18;1.30;;;8.40;99.90;;;;;;4977586;28;20026;-79
2022/02/23 01:06:28;;;;;;;4.07;1.10;;;8.40;99.90;;;;;;4977942;28;20041;-79
2022/02/23 01:08:54;;;;;;;6.15;1.30;;;8.40;99.90;;;;;;4977081;28;20089;-80
2022/02/23 01:11:22;;;;;;;5.45;1.35;;;8.40;99.90;;;;;;4978007;28;20073;-80
2022/02/23 01:13:49;;;;;;;6.00;1.10;;;8.40;99.90;;;;;;4977353;28;20034;-80
2022/02/23 01:16:15;;;;;;;5.78;1.10;;;8.40;99.90;;;;;;4977510;28;20471;-79
2022/02/23 01:18:41;;;;;;;4.05;1.02;;;8.40;99.90;;;;;;4976996;28;20065;-80
2022/02/23 01:21:06;;;;;;;4.95;0.88;;;8.50;99.90;;;;;;4977023;28;20060;-80
2022/02/23 01:23:32;;;;;;;6.60;1.05;;;8.40;99.90;;;;;;4977432;28;20058;-80
2022/02/23 01:25:58;;;;;;;1.88;0.40;;;8.30;99.90;;;;;;4976862;28;20057;-79
2022/02/23 01:28:23;;;;;;;5.65;0.55;;;8.30;99.90;;;;;;4977176;28;20593;-79
2022/02/23 01:30:49;;;;;;;5.45;0.50;;;8.30;99.90;;;;;;4976384;28;20050;-80
2022/02/23 01:33:15;;;;;;;3.92;0.50;;;8.30;99.90;;;;;;4976575;28;20072;-79
2022/02/23 01:35:40;;;;;;;3.80;0.50;;;8.30;99.90;;;;;;4977197;28;20022;-80
2022/02/23 01:38:06;;;;;;;5.40;0.80;;;8.30;99.90;;;;;;4976485;28;20062;-78
2022/02/23 01:40:32;;;;;;;2.60;0.70;;;8.30;99.90;;;;;;4993513;28;20058;-79
2022/02/23 01:42:58;;;;;;;6.63;0.80;;;8.30;99.90;;;;;;4976179;28;20031;-79
2022/02/23 01:45:24;;;;;;;4.07;0.90;;;8.40;99.90;;;;;;4994148;28;20092;-79
2022/02/23 01:47:50;;;;;;;1.65;0.60;;;8.40;99.90;;;;;;4975789;28;20129;-79
2022/02/23 01:50:16;;;;;;;2.45;0.80;;;8.40;99.90;;;;;;4977359;28;20136;-79
2022/02/23 01:52:42;;;;;;;2.05;0.40;;;8.40;99.90;;;;;;4993901;28;20029;-80
2022/02/23 01:55:09;;;;;;;3.38;0.65;;;8.40;99.90;;;;;;4976987;28;20030;-79
2022/02/23 01:57:35;;;;;;;4.47;0.70;;;8.40;99.90;;;;;;4977023;28;20551;-79
2022/02/23 02:00:02;;;;;;;4.68;1.23;;;8.40;99.90;;;;;;4993567;28;20030;-79
2022/02/23 02:02:29;;;;;;;3.20;0.70;;;8.30;99.90;;;;;;4993868;28;20058;-79
2022/02/23 02:04:54;;;;;;;6.18;0.57;;;8.30;99.90;;;;;;4976024;28;20037;-79
2022/02/23 02:07:20;;;;;;;4.85;0.80;;;8.30;99.90;;;;;;4993890;28;20054;-79
2022/02/23 02:09:46;;;;;;;3.42;0.50;;;8.30;99.90;;;;;;4976509;28;20035;-79
2022/02/23 02:12:12;;;;;;;1.35;0.50;;;8.30;99.90;;;;;;4976838;28;20026;-80
2022/02/23 02:14:37;;;;;;;3.75;0.50;;;8.30;99.90;;;;;;4993588;28;20026;-79
2022/02/23 02:17:04;;;;;;;2.45;0.30;;;8.30;99.90;;;;;;4975117;28;20113;-80
2022/02/23 02:19:30;;;;;;;1.48;0.50;;;8.30;99.90;;;;;;4976425;28;20026;-80
2022/02/23 02:22:00;;;;;;;2.05;0.47;;;8.30;99.90;;;;;;4975700;28;20022;-79
2022/02/23 02:24:28;;;;;;;1.90;0.60;;;8.20;99.90;;;;;;4976139;28;20033;-79
2022/02/23 02:26:55;;;;;;;1.95;0.50;;;8.20;99.90;;;;;;4975627;28;20112;-79
2022/02/23 02:29:22;;;;;;;2.55;0.63;;;8.10;99.90;;;;;;4976252;28;20066;-80
2022/02/23 02:31:48;;;;;;;1.65;0.35;;;8.10;99.90;;;;;;4975082;28;20030;-81
2022/02/23 02:34:17;;;;;;;4.93;0.75;;;8.10;99.90;;;;;;4976293;28;20550;-79
2022/02/23 02:36:43;;;;;;;1.85;0.40;;;8.10;99.90;;;;;;4976034;28;20034;-80
2022/02/23 02:39:09;;;;;;;3.97;0.60;;;8.10;99.90;;;;;;4972602;28;20039;-77
2022/02/23 02:41:36;;;;;;;2.67;0.50;;;8.10;99.90;;;;;;4972579;28;20031;-80
2022/02/23 02:44:03;;;;;;;3.35;0.80;;;8.10;99.90;;;;;;4972856;28;20026;-79
2022/02/23 02:46:29;;;;;;;5.13;1.08;;;8.10;99.90;;;;;;4973149;28;20389;-79
2022/02/23 02:48:56;;;;;;;2.05;0.60;;;8.10;99.90;;;;;;4972270;28;20463;-79
2022/02/23 02:51:21;;;;;;;1.38;0.50;;;8.10;99.90;;;;;;4972800;28;20037;-79
2022/02/23 02:53:48;;;;;;;4.75;0.52;;;8.00;99.90;;;;;;4972776;28;20147;-80
2022/02/23 02:56:13;;;;;;;2.72;0.63;;;8.00;99.90;;;;;;4972970;28;20034;-79
2022/02/23 02:58:39;;;;;;;3.03;0.52;;;8.00;99.90;;;;;;4973120;28;20038;-80
2022/02/23 03:01:05;;;;;;;4.15;0.60;;;8.00;99.90;;;;;;4972007;28;20078;-80
2022/02/23 03:03:31;;;;;;;2.75;0.40;;;8.10;99.90;;;;;;4973112;28;20027;-80
2022/02/23 03:05:57;;;;;;;1.55;0.50;;;8.00;99.90;;;;;;4972082;28;20042;-80
2022/02/23 03:08:23;;;;;;;5.53;0.80;;;8.10;99.90;;;;;;4972904;28;20035;-79
2022/02/23 03:10:49;;;;;;;2.47;0.63;;;8.00;99.90;;;;;;4972249;28;20356;-80
2022/02/23 03:13:15;;;;;;;4.50;0.50;;;8.10;99.90;;;;;;4972664;28;20468;-79
2022/02/23 03:15:41;;;;;;;2.38;0.60;;;8.10;99.90;;;;;;4973943;28;20026;-79
2022/02/23 03:18:07;;;;;;;2.78;0.60;;;8.00;99.90;;;;;;4972775;28;20031;-79
2022/02/23 03:20:33;;;;;;;4.07;0.88;;;8.00;99.90;;;;;;4972074;28;20027;-79
2022/02/23 03:22:59;;;;;;;1.80;0.60;;;8.00;99.90;;;;;;4971835;28;20033;-79
2022/02/23 03:25:25;;;;;;;1.48;0.52;;;8.00;99.90;;;;;;4972503;28;20051;-79
2022/02/23 03:27:51;;;;;;;3.20;0.70;;;8.00;99.90;;;;;;4975001;28;20070;-79
2022/02/23 03:30:17;;;;;;;3.20;1.08;;;7.90;99.90;;;;;;4975405;28;20035;-79
2022/02/23 03:32:43;;;;;;;3.70;1.60;;;7.90;99.90;;;;;;4975353;28;20050;-79
2022/02/23 03:35:09;;;;;;;7.90;2.00;;;7.80;99.90;;;;;;4975171;28;20081;-79
2022/02/23 03:37:35;;;;;;;7.70;2.30;;;7.80;99.90;;;;;;4975581;28;20108;-79
2022/02/23 03:40:00;;;;;;;8.50;2.42;;;7.80;99.90;;;;;;4975702;28;20023;-79
2022/02/23 03:42:26;;;;;;;4.60;1.30;;;7.80;99.90;;;;;;4975766;28;20592;-79
2022/02/23 03:44:52;;;;;;;3.95;1.38;;;7.90;99.90;;;;;;4975623;28;20062;-79
2022/02/23 03:47:17;;;;;;;2.75;1.00;;;7.90;99.90;;;;;;4975864;28;20459;-80
2022/02/23 03:49:44;;;;;;;5.50;1.60;;;8.00;99.90;;;;;;4975785;28;20031;-80
2022/02/23 03:52:09;;;;;;;4.72;1.40;;;7.90;99.90;;;;;;4975267;28;20118;-80
2022/02/23 03:54:36;;;;;;;3.75;1.33;;;7.90;99.90;;;;;;4977046;28;20106;-80
2022/02/23 03:57:02;;;;;;;3.05;1.30;;;7.90;99.90;;;;;;4975467;28;20031;-80
2022/02/23 03:59:28;;;;;;;2.30;0.90;;;7.80;99.90;;;;;;4975238;28;20027;-80
2022/02/23 04:01:54;;;;;;;3.83;0.90;;;7.80;99.90;;;;;;4975141;28;20022;-81
2022/02/23 04:04:20;;;;;;;3.45;1.00;;;7.80;99.90;;;;;;4976025;28;20173;-81
2022/02/23 04:06:48;;;;;;;3.08;0.80;;;7.80;99.90;;;;;;4976017;28;20149;-80
2022/02/23 04:09:13;;;;;;;10.05;1.50;;;7.80;99.90;;;;;;4975134;28;20038;-79
2022/02/23 04:11:40;;;;;;;2.72;1.23;;;7.80;99.90;;;;;;4975054;28;20391;-79
2022/02/23 04:14:06;;;;;;;3.80;1.00;;;7.70;99.90;;;;;;4975928;28;20105;-79
2022/02/23 04:16:33;;;;;;;2.28;0.90;;;7.70;99.90;;;;;;4975414;28;20502;-79
2022/02/23 04:18:59;;;;;;;5.43;1.15;;;7.60;99.90;;;;;;4974769;28;20078;-77
2022/02/23 04:21:25;;;;;;;4.50;1.60;;;7.60;99.90;;;;;;4975143;28;20034;-77
2022/02/23 04:23:51;;;;;;;2.88;1.02;;;7.60;99.90;;;;;;4975196;28;20027;-78
2022/02/23 04:26:17;;;;;;;2.60;1.08;;;7.60;99.90;;;;;;4975141;28;20138;-77
2022/02/23 04:28:44;;;;;;;2.65;1.00;;;7.60;99.90;;;;;;4975154;28;20117;-77
2022/02/23 04:31:10;;;;;;;4.57;1.10;;;7.60;99.90;;;;;;4974410;28;20065;-77
2022/02/23 04:33:36;;;;;;;5.43;1.20;;;7.60;99.90;;;;;;4974978;28;20058;-77
2022/02/23 04:36:05;;;;;;;4.05;1.20;;;7.50;99.90;;;;;;4975188;28;20058;-78
2022/02/23 04:38:30;;;;;;;4.57;1.35;;;7.50;99.90;;;;;;4973328;28;20051;-78
2022/02/23 04:40:56;;;;;;;4.03;1.20;;;7.50;99.90;;;;;;4974170;28;20357;-80
2022/02/23 04:43:21;;;;;;;5.05;1.17;;;7.50;99.90;;;;;;4974664;28;20460;-78
2022/02/23 04:45:48;;;;;;;3.53;1.23;;;7.50;99.90;;;;;;4975062;28;20395;-77
2022/02/23 04:48:13;;;;;;;5.97;1.38;;;7.50;99.90;;;;;;4975481;28;20574;-77
2022/02/23 04:50:39;;;;;;;2.45;1.20;;;7.40;99.90;;;;;;4975202;28;20027;-77
2022/02/23 04:53:05;;;;;;;6.60;1.60;;;7.40;99.90;;;;;;4974496;28;20361;-77
2022/02/23 04:55:31;;;;;;;4.35;1.17;;;7.30;99.90;;;;;;4974643;28;20027;-76
2022/02/23 04:57:57;;;;;;;4.10;1.55;;;7.30;99.90;;;;;;4974051;28;20038;-77
2022/02/23 05:00:23;;;;;;;6.85;1.70;;;7.30;99.90;;;;;;4975625;28;20023;-77
2022/02/23 05:02:48;;;;;;;4.22;1.50;;;7.20;99.90;;;;;;4974525;28;20030;-79
2022/02/23 05:05:14;;;;;;;6.07;2.10;;;7.10;99.90;;;;;;4974005;28;20030;-77
2022/02/23 05:07:39;;;;;;;7.28;2.53;;;7.10;99.90;;;;;;4974392;28;20047;-77
2022/02/23 05:10:06;;;;;;;11.90;2.70;;;7.20;99.90;;;;;;4975511;28;20031;-77
2022/02/23 05:12:31;;;;;;;6.40;1.77;;;7.20;99.90;;;;;;4974067;28;20117;-76
2022/02/23 05:14:57;;;;;;;7.38;2.00;;;7.20;99.90;;;;;;4973933;28;20084;-77
2022/02/23 05:17:23;;;;;;;6.60;1.70;;;7.20;99.90;;;;;;4974035;28;20035;-80
2022/02/23 05:19:48;;;;;;;5.30;1.55;;;7.20;99.90;;;;;;4974517;28;20031;-79
2022/02/23 05:22:14;;;;;;;7.57;2.25;;;7.20;99.90;;;;;;4974757;28;20019;-77
2022/02/23 05:24:40;;;;;;;5.33;1.70;;;7.20;99.90;;;;;;4974251;28;20137;-77
2022/02/23 05:27:06;;;;;;;6.47;2.08;;;7.10;99.90;;;;;;4974499;28;20620;-76
2022/02/23 05:29:32;;;;;;;4.53;1.88;;;7.10;99.90;;;;;;4974138;28;20081;-76
2022/02/23 05:31:58;;;;;;;6.32;2.03;;;7.00;99.90;;;;;;4973645;28;20118;-77
2022/02/23 05:34:24;;;;;;;6.85;2.28;;;6.90;99.90;;;;;;4974462;28;20031;-77
2022/02/23 05:36:49;;;;;;;9.65;1.88;;;6.90;99.90;;;;;;4974841;28;20592;-78
2022/02/23 05:39:15;;;;;;;5.57;1.90;;;7.00;99.90;;;;;;4977154;28;20129;-77
2022/02/23 05:41:41;;;;;;;5.35;2.17;;;7.10;99.90;;;;;;4977293;28;20034;-77
2022/02/23 05:44:07;;;;;;;7.60;1.67;;;7.10;99.90;;;;;;4976687;28;20502;-77
2022/02/23 05:46:34;;;;;;;5.72;2.15;;;7.10;99.90;;;;;;4977428;28;20031;-77
2022/02/23 05:48:59;;;;;;;5.67;1.97;;;7.10;99.90;;;;;;4975756;28;20036;-78
2022/02/23 05:51:33;;;;;;;8.53;2.10;;;7.10;99.90;;;;;;4976089;28;20022;-77
2022/02/23 05:54:00;;;;;;;5.13;2.30;;;7.00;99.90;;;;;;4976305;28;20466;-77
2022/02/23 05:56:28;;;;;;;5.93;2.28;;;7.00;99.90;;;;;;4976500;28;20030;-77
2022/02/23 05:58:55;;;;;;;6.75;2.10;;;7.00;99.90;;;;;;4976994;28;20028;-77
2022/02/23 06:01:20;;;;;;;5.77;2.13;;;7.10;99.90;;;;;;4976407;28;20022;-77
2022/02/23 06:03:46;;;;;;;8.38;2.38;;;7.00;99.90;;;;;;4976298;28;20117;-77
2022/02/23 06:06:11;;;;;;;6.00;2.25;;;7.00;99.90;;;;;;4976107;28;20121;-77
2022/02/23 06:08:38;;;;;;;4.38;2.10;;;7.10;99.90;;;;;;4976467;28;20085;-77
2022/02/23 06:11:05;;;;;;;7.03;2.43;;;7.10;99.90;;;;;;4975712;28;20041;-77
2022/02/23 06:13:31;;;;;;;6.40;2.20;;;7.10;99.90;;;;;;4976533;28;20026;-80
2022/02/23 06:15:57;;;;;;;5.85;2.05;;;7.10;99.90;;;;;;4976364;28;20026;-78
2022/02/23 06:18:23;;;;;;;4.82;2.10;;;7.10;99.90;;;;;;4993744;28;20027;-77
2022/02/23 06:20:50;;;;;;;6.80;2.42;;;7.00;99.90;;;;;;4976749;28;20026;-77
2022/02/23 06:23:16;;;;;;;5.53;2.10;;;7.00;99.90;;;;;;4976540;28;20141;-77
2022/02/23 06:25:42;;;;;;;5.85;1.90;;;7.00;99.90;;;;;;4976875;28;20197;-77
2022/02/23 06:28:07;;;;;;;4.93;2.10;;;6.90;99.90;;;;;;4975994;28;20049;-77
2022/02/23 06:30:33;;;;;;;5.13;2.35;;;7.00;99.90;;;;;;4976660;28;20088;-78
2022/02/23 06:32:58;;;;;;;9.80;2.13;;;7.00;99.90;;;;;;4992868;28;20077;-78
2022/02/23 06:35:24;;;;;;;6.50;2.10;;;7.10;99.90;;;;;;4976531;28;20027;-78
2022/02/23 06:37:51;;;;;;;8.75;2.28;;;7.10;99.90;;;;;;4976138;28;20109;-78
2022/02/23 06:40:16;;;;;;;6.45;2.72;;;7.20;99.90;;;;;;4976369;28;20032;-78
2022/02/23 06:42:42;;;;;;;7.05;2.83;;;7.20;99.90;;;;;;4976973;28;20109;-78
2022/02/23 06:45:09;;;;;;;3.90;2.30;;;7.20;99.90;;;;;;4976319;28;20077;-78
2022/02/23 06:47:34;;;;;;;6.18;2.35;;;7.30;99.90;;;;;;4976588;28;20038;-78
2022/02/23 06:50:00;;;;;;;5.25;2.58;;;7.30;99.90;;;;;;4976058;28;20413;-79
2022/02/23 06:52:30;;;;;;;6.45;2.80;;;7.30;99.90;;;;;;4993217;28;20052;-79
2022/02/23 06:54:56;;;;;;;8.13;2.15;;;7.30;99.90;;;;;;4976540;28;20065;-78
2022/02/23 06:57:22;;;;;;;11.32;2.80;;;7.40;99.90;;;;;;4975374;28;20106;-78
2022/02/23 06:59:48;;;;;;;7.78;2.95;;;7.40;99.90;;;;;;4976513;28;20034;-77
2022/02/23 07:02:14;;;;;;;6.13;2.90;;;7.40;99.90;;;;;;4977266;28;20033;-77
2022/02/23 07:04:41;;;;;;;5.32;3.25;;;7.40;99.90;;;;;;4980373;28;20033;-79
2022/02/23 07:07:07;;;;;;;7.07;2.75;;;7.40;99.90;;;;;;4979777;28;20054;-78
2022/02/23 07:09:33;;;;;;;5.40;3.00;;;7.40;99.90;;;;;;4997247;28;20027;-78
2022/02/23 07:12:01;;;;;;;7.93;3.03;;;7.40;99.90;;;;;;4979902;28;20392;-78
2022/02/23 07:14:27;;;;;;;6.57;3.42;;;7.50;99.90;;;;;;4980194;28;20395;-78
2022/02/23 07:16:53;;;;;;;4.25;3.05;;;7.50;99.90;;;;;;4980017;28;20030;-79
2022/02/23 07:19:20;;;;;;;7.68;2.75;;;7.50;99.90;;;;;;4979606;28;20030;-79
2022/02/23 07:21:47;;;;;;;8.75;3.10;;;7.50;99.90;;;;;;4979303;28;20085;-79
2022/02/23 07:24:12;;;;;;;6.50;2.90;;;7.60;99.90;;;;;;4978865;28;20471;-79
2022/02/23 07:26:38;;;;;;;7.60;2.72;;;7.50;99.90;;;;;;4979123;28;20122;-79
2022/02/23 07:29:04;;;;;;;11.52;3.40;;;7.60;99.90;;;;;;4996541;28;20034;-79
2022/02/23 07:31:29;;;;;;;5.00;3.10;;;7.60;99.90;;;;;;4979683;28;20471;-80
2022/02/23 07:33:55;;;;;;;8.10;2.87;;;7.70;99.90;;;;;;4996947;28;20034;-78
2022/02/23 07:36:20;;;;;;;7.80;3.05;;;7.70;99.90;;;;;;4978917;28;20530;-81
2022/02/23 07:38:48;;;;;;;6.20;2.75;;;7.70;99.90;;;;;;4975789;28;20055;-78
2022/02/23 07:41:21;;;;;;;9.23;2.97;;;7.80;99.90;;;;;;4977181;28;20022;-78
2022/02/23 07:43:48;;;;;;;5.78;2.88;;;7.80;99.90;;;;;;4976800;28;20035;-78
2022/02/23 07:46:13;;;;;;;6.20;2.70;;;7.80;99.90;;;;;;4975517;28;20023;-78
2022/02/23 07:48:41;;;;;;;6.88;3.00;;;7.70;99.90;;;;;;4976118;28;20117;-78
2022/02/23 07:51:07;;;;;;;8.95;3.10;;;7.80;99.90;;;;;;4976835;28;20062;-78
2022/02/23 07:53:33;;;;;;;7.35;3.00;;;7.80;99.90;;;;;;4976292;28;20482;-79
2022/02/23 07:55:59;;;;;;;5.40;2.75;;;7.80;99.90;;;;;;4977139;28;20027;-79
2022/02/23 07:58:24;;;;;;;6.13;3.17;;;7.80;99.90;;;;;;4975321;28;20018;-79
2022/02/23 08:00:50;;;;;;;6.53;3.38;;;7.80;99.90;;;;;;4975502;28;20030;-76
2022/02/23 08:03:16;;;;;;;6.72;3.15;;;7.90;99.90;;;;;;4975068;28;20493;-79
2022/02/23 08:05:42;;;;;;;6.30;3.05;;;7.90;99.90;;;;;;4975310;28;20042;-78
2022/02/23 08:08:09;;;;;;;5.75;3.17;;;7.90;99.90;;;;;;4976569;28;20122;-77
2022/02/23 08:10:35;;;;;;;5.13;2.97;;;7.90;99.90;;;;;;4975601;28;20074;-77
2022/02/23 08:13:04;;;;;;;7.55;3.10;;;7.90;99.90;;;;;;4975506;28;20026;-77
2022/02/23 08:21:00;;;;;;;9.07;3.33;;;7.90;99.90;;;;;;4976230;28;20045;-77
2022/02/23 08:23:26;;;;;;;9.45;3.55;;;7.90;99.90;;;;;;4974671;28;20031;-77
2022/02/23 08:25:52;;;;;;;9.77;3.28;;;8.00;99.90;;;;;;4975227;28;20026;-76
2022/02/23 08:28:17;;;;;;;7.32;3.00;;;8.00;99.90;;;;;;4975738;28;20038;-76
2022/02/23 08:30:43;;;;;;;5.22;2.60;;;8.10;99.90;;;;;;4976244;28;20023;-76
2022/02/23 08:33:09;;;;;;;4.00;2.63;;;8.10;99.90;;;;;;4974758;28;20125;-76
2022/02/23 08:35:34;;;;;;;6.55;3.10;;;8.10;99.90;;;;;;4975173;28;20369;-78
2022/02/23 08:38:00;;;;;;;9.07;2.83;;;8.10;99.90;;;;;;4974646;28;20055;-77
2022/02/23 08:40:26;;;;;;;7.55;3.00;;;8.10;99.90;;;;;;4974875;28;20380;-77
2022/02/23 08:42:53;;;;;;;5.97;2.85;;;8.10;99.90;;;;;;4974835;28;20031;-77
2022/02/23 08:45:19;;;;;;;6.30;2.67;;;8.10;99.90;;;;;;4974548;28;20042;-77
2022/02/23 08:47:44;;;;;;;7.72;2.50;;;8.10;99.90;;;;;;4975090;28;20035;-77
2022/02/23 08:50:10;;;;;;;5.25;2.20;;;8.10;99.90;;;;;;4974376;28;20030;-77
2022/02/23 08:52:36;;;;;;;9.40;2.65;;;8.20;99.90;;;;;;4975143;28;20033;-76
2022/02/23 08:55:03;;;;;;;5.90;1.85;;;8.20;99.90;;;;;;4974755;28;20030;-77
2022/02/23 08:57:30;;;;;;;7.20;2.10;;;8.30;99.90;;;;;;4974218;28;20126;-77
2022/02/23 08:59:55;;;;;;;7.03;1.92;;;8.30;99.90;;;;;;4974859;28;20034;-76
2022/02/23 09:02:21;;;;;;;5.10;1.70;;;8.20;99.90;;;;;;4974192;28;20039;-77
2022/02/23 09:04:47;;;;;;;6.50;2.38;;;8.30;99.90;;;;;;4974771;28;20085;-77
2022/02/23 09:07:13;;;;;;;6.50;2.03;;;8.30;99.90;;;;;;4974189;28;20511;-77
2022/02/23 09:09:39;;;;;;;5.15;1.75;;;8.30;99.90;;;;;;4974798;28;20439;-76
2022/02/23 09:12:05;;;;;;;7.90;1.67;;;8.30;99.90;;;;;;4974434;28;20062;-76
2022/02/23 09:14:31;;;;;;;5.53;1.67;;;8.40;99.90;;;;;;4973894;28;20487;-76
2022/02/23 09:16:58;;;;;;;5.70;1.80;;;8.40;99.90;;;;;;4974453;28;20510;-78
2022/02/23 09:19:23;;;;;;;4.22;1.65;;;8.40;99.90;;;;;;4974210;28;20070;-77
2022/02/23 09:21:49;;;;;;;4.10;1.65;;;8.40;99.90;;;;;;4974493;28;20490;-77
2022/02/23 09:24:14;;;;;;;7.68;1.80;;;8.40;99.90;;;;;;4973418;28;20023;-76
2022/02/23 09:26:40;;;;;;;6.40;1.58;;;8.50;99.90;;;;;;4974240;28;20108;-78
2022/02/23 09:29:07;;;;;;;3.53;1.67;;;8.50;99.90;;;;;;4974354;28;20030;-78
2022/02/23 09:31:33;;;;;;;7.28;1.70;;;8.50;99.90;;;;;;4985426;28;20026;-77
2022/02/23 09:33:59;;;;;;;8.02;1.98;;;8.60;99.90;;;;;;4992490;28;20034;-77
2022/02/23 09:36:24;;;;;;;12.30;2.00;;;8.60;99.90;;;;;;4985152;28;20467;-77
2022/02/23 09:38:51;;;;;;;7.47;1.67;;;8.60;99.90;;;;;;5000430;28;20101;-77
2022/02/23 09:41:18;;;;;;;6.68;2.10;;;8.60;99.90;;;;;;4984100;28;20022;-77
2022/02/23 09:43:47;;;;;;;5.65;1.50;;;8.60;99.90;;;;;;4981091;28;20023;-77
2022/02/23 09:46:18;;;;;;;3.83;1.40;;;8.70;99.90;;;;;;4975823;28;20130;-77
2022/02/23 09:48:44;;;;;;;5.03;1.65;;;8.80;99.90;;;;;;4991180;28;20471;-82
2022/02/23 09:51:10;;;;;;;8.13;1.40;;;8.90;99.90;;;;;;4973184;28;20026;-81
2022/02/23 09:53:38;;;;;;;7.65;1.60;;;9.00;99.90;;;;;;4994660;28;20450;-81
2022/02/23 09:56:04;;;;;;;7.15;1.42;;;9.00;99.90;;;;;;4982947;28;20387;-78
2022/02/23 09:58:30;;;;;;;5.35;1.30;;;8.90;99.90;;;;;;4998401;28;20027;-79
2022/02/23 10:00:56;;;;;;;4.07;1.65;;;9.00;99.90;;;;;;4976295;28;20029;-78
2022/02/23 10:03:22;;;;;;;5.20;1.20;;;9.10;99.90;;;;;;4975842;28;20093;-79
2022/02/23 10:05:48;;;;;;;3.63;1.25;;;9.10;99.90;;;;;;4980514;28;20042;-78
2022/02/23 10:08:14;;;;;;;3.50;1.15;;;9.20;99.90;;;;;;4987083;28;20374;-79
2022/02/23 10:10:42;;;;;;;5.65;1.40;;;9.10;99.90;;;;;;4979662;28;20394;-77
2022/02/23 10:13:09;;;;;;;5.28;1.65;;;9.20;99.90;;;;;;4985764;28;20026;-81
2022/02/23 10:15:40;;;;;;;5.72;1.48;;;9.20;99.90;;;;;;4976725;28;20030;-79
2022/02/23 10:18:19;;;;;;;5.93;1.52;;;9.30;99.90;;;;;;4976769;28;20089;-78
2022/02/23 10:20:47;;;;;;;6.38;2.05;;;9.30;99.90;;;;;;5008615;28;20076;-77
2022/02/23 10:23:20;;;;;;;4.85;1.40;;;9.30;99.90;;;;;;5012786;28;20029;-79
2022/02/23 10:25:52;;;;;;;4.93;2.08;;;9.30;99.90;;;;;;4996179;28;20117;-79
2022/02/23 10:28:21;;;;;;;4.82;1.55;;;9.40;99.90;;;;;;4994999;28;20053;-79
2022/02/23 10:30:59;;;;;;;4.47;1.27;;;9.40;99.90;;;;;;4995377;28;20042;-79
2022/02/23 10:33:30;;;;;;;5.55;1.23;;;9.40;99.90;;;;;;4995077;28;20132;-79
2022/02/23 10:36:03;;;;;;;6.28;1.80;;;9.40;99.90;;;;;;4996050;28;20459;-80
2022/02/23 10:38:34;;;;;;;5.45;1.45;;;9.40;99.90;;;;;;4998590;28;20498;-80
2022/02/23 10:41:03;;;;;;;6.65;1.40;;;9.30;99.90;;;;;;5006490;28;20034;-81
2022/02/23 10:43:39;;;;;;;4.75;1.42;;;9.40;99.90;;;;;;4993480;28;20422;-78
2022/02/23 10:46:10;;;;;;;3.53;1.13;;;9.30;99.90;;;;;;4998001;28;20026;-78
2022/02/23 10:48:41;;;;;;;2.63;1.33;;;9.30;99.90;;;;;;4999658;28;20033;-77
2022/02/23 10:51:09;;;;;;;5.68;1.52;;;9.30;99.90;;;;;;4978791;28;20053;-77
2022/02/23 10:53:35;;;;;;;4.80;1.52;;;9.40;99.90;;;;;;4979398;28;20372;-78
2022/02/23 10:56:19;;;;;;;6.72;1.52;;;9.40;99.90;;;;;;4989380;28;20443;-77
2022/02/23 10:58:45;;;;;;;6.90;1.48;;;9.30;99.90;;;;;;5016770;28;20049;-77
2022/02/23 11:01:11;;;;;;;7.10;1.60;;;9.40;99.90;;;;;;4999009;28;20060;-77
2022/02/23 11:03:36;;;;;;;5.60;1.50;;;9.40;99.90;;;;;;5000030;28;20077;-78
2022/02/23 11:06:03;;;;;;;4.65;1.35;;;9.40;99.90;;;;;;4991309;28;20080;-78
2022/02/23 11:08:29;;;;;;;5.53;1.17;;;9.40;99.90;;;;;;4998780;28;20042;-81
2022/02/23 11:10:55;;;;;;;6.18;1.23;;;9.50;99.90;;;;;;4999927;28;20471;-78
2022/02/23 11:13:22;;;;;;;7.07;1.55;;;9.60;99.90;;;;;;5015775;28;20037;-76
2022/02/23 11:15:49;;;;;;;5.25;1.50;;;9.80;99.90;;;;;;4998798;28;20490;-76
2022/02/23 11:18:17;;;;;;;5.63;1.20;;;9.70;99.90;;;;;;4998695;28;20030;-79
2022/02/23 11:20:45;;;;;;;5.38;1.20;;;9.80;99.90;;;;;;4984193;28;20108;-77
2022/02/23 11:23:22;;;;;;;6.93;1.75;;;9.90;99.90;;;;;;4996998;28;20112;-76
2022/02/23 11:25:50;;;;;;;7.22;1.30;;;9.90;99.90;;;;;;4997245;28;20026;-76
2022/02/23 11:28:42;;;;;;;4.65;1.65;;;9.80;99.90;;;;;;4978581;28;20037;-76
2022/02/23 11:31:13;;;;;;;6.97;1.35;;;9.80;99.90;;;;;;4996447;28;20046;-77
2022/02/23 11:33:59;;;;;;;5.53;1.42;;;10.00;99.90;;;;;;4983018;28;20056;-76
2022/02/23 11:36:44;;;;;;;5.65;1.38;;;10.10;99.90;;;;;;4997865;28;20493;-76
2022/02/23 11:39:33;;;;;;;2.80;1.00;;;10.30;99.90;;;;;;4983528;28;20106;-75
2022/02/23 11:42:03;;;;;;;4.30;1.08;;;10.40;99.90;;;;;;4978220;28;20037;-75
2022/02/23 11:44:32;;;;;;;4.10;1.02;;;10.40;99.90;;;;;;4995387;28;20066;-75
2022/02/23 11:47:25;;;;;;;5.10;0.80;;;10.50;99.90;;;;;;4978117;28;20034;-76
2022/02/23 11:50:13;;;;;;;3.90;0.90;;;10.50;99.90;;;;;;4996215;28;20533;-80
2022/02/23 11:52:44;;;;;;;4.13;1.00;;;10.60;99.70;;;;;;4962931;28;20037;-81
2022/02/23 11:55:33;;;;;;;3.53;1.25;;;10.60;99.80;;;;;;4978852;28;20023;-78
2022/02/23 12:00:56;;;;;;;3.55;0.93;;;10.70;98.90;;;;;;4995676;28;20037;-77
2022/02/23 12:03:27;;;;;;;3.97;0.73;;;10.80;98.90;;;;;;4978064;28;20480;-78
2022/02/23 12:05:52;;;;;;;6.32;0.98;;;10.80;98.70;;;;;;4978298;28;20031;-77
2022/02/23 12:08:33;;;;;;;9.23;0.98;;;10.90;98.20;;;;;;4984342;28;20072;-77
2022/02/23 12:11:17;;;;;;;4.40;1.05;;;10.90;98.30;;;;;;4978254;28;20014;-77
2022/02/23 12:13:51;;;;;;;6.43;1.23;;;10.80;99.10;;;;;;4994865;28;20077;-75
2022/02/23 12:16:35;;;;;;;6.47;1.30;;;11.00;99.00;;;;;;4977423;28;20030;-76
2022/02/23 12:19:03;;;;;;;3.75;1.00;;;11.10;98.40;;;;;;4961483;28;20026;-75
2022/02/23 12:21:40;;;;;;;5.68;0.80;;;11.20;98.30;;;;;;4976986;28;20023;-75
2022/02/23 12:24:07;;;;;;;3.17;0.60;;;11.40;96.70;;;;;;4977631;28;20081;-77
2022/02/23 12:26:38;;;;;;;7.03;1.55;;;11.50;96.50;;;;;;4977283;28;20070;-77
2022/02/23 12:29:07;;;;;;;2.92;0.77;;;11.70;96.60;;;;;;4985886;28;20044;-76
2022/02/23 12:31:33;;;;;;;4.50;1.00;;;11.90;96.80;;;;;;4977131;28;20105;-77
2022/02/23 12:34:19;;;;;;;4.93;0.80;;;12.10;96.00;;;;;;4995112;28;20034;-76
2022/02/23 12:36:51;;;;;;;6.60;1.10;;;12.40;93.60;;;;;;4977589;28;20089;-76
2022/02/23 12:39:22;;;;;;;4.30;0.93;;;12.50;88.10;;;;;;4976642;28;20065;-74
2022/02/23 12:41:51;;;;;;;4.65;1.00;;;12.70;87.40;;;;;;4975083;28;20124;-74
2022/02/23 12:44:23;;;;;;;0.98;0.45;;;13.00;85.80;;;;;;4977701;28;20554;-74
2022/02/23 12:46:52;;;;;;;5.30;0.80;;;13.30;81.60;;;;;;4980799;28;20368;-74
2022/02/23 12:49:20;;;;;;;3.22;1.00;;;13.40;82.60;;;;;;4976073;28;20039;-77
2022/02/23 12:51:48;;;;;;;5.80;1.10;;;13.70;86.80;;;;;;4976646;28;20027;-75
2022/02/23 12:54:20;;;;;;;2.47;0.73;;;13.80;85.00;;;;;;4976758;28;20033;-76
2022/02/23 12:56:54;;;;;;;2.50;0.68;;;13.90;80.20;;;;;;4976640;28;20495;-75
2022/02/23 12:59:22;;;;;;;5.03;1.00;;;14.10;80.00;;;;;;4967794;28;20034;-75
2022/02/23 13:01:53;;;;;;;5.93;0.95;;;14.40;78.00;;;;;;4975801;28;20058;-76
2022/02/23 13:04:21;;;;;;;3.63;0.70;;;14.80;76.30;;;;;;4989125;28;20036;-76